sensor_id;sensor_type;location;lat;lon;timestamp;pressure;altitude;pressure_sealevel;temperature;humidity
41800;BME280;27468;47.460;19.034;2024-02-26T00:01:25;99601.19;;;11.64;100.00
41800;BME280;27468;47.460;19.034;2024-02-26T00:03:51;99605.09;;;11.78;100.00
41800;BME280;27468;47.460;19.034;2024-02-26T00:06:17;99590.41;;;11.70;100.00
41800;BME280;27468;47.460;19.034;2024-02-26T00:08:43;99594.19;;;11.63;100.00
41800;BME280;27468;47.460;19.034;2024-02-26T00:11:08;99580.88;;;11.42;100.00
41800;BME280;27468;47.460;19.034;2024-02-26T00:13:34;99579.50;;;11.55;100.00
41800;BME280;27468;47.460;19.034;2024-02-26T00:15:59;99596.50;;;11.72;100.00
41800;BME280;27468;47.460;19.034;2024-02-26T00:18:25;99540.28;;;11.21;100.00
41800;BME280;27468;47.460;19.034;2024-02-26T00:20:50;99582.34;;;11.51;100.00
41800;BME280;27468;47.460;19.034;2024-02-26T00:23:15;99593.34;;;11.62;100.00
41800;BME280;27468;47.460;19.034;2024-02-26T00:25:41;99568.66;;;11.40;100.00
41800;BME280;27468;47.460;19.034;2024-02-26T00:28:08;99591.06;;;11.53;100.00
41800;BME280;27468;47.460;19.034;2024-02-26T00:30:34;99576.47;;;11.43;100.00
41800;BME280;27468;47.460;19.034;2024-02-26T00:32:59;99589.50;;;11.47;100.00
41800;BME280;27468;47.460;19.034;2024-02-26T00:35:24;99578.53;;;11.58;100.00
41800;BME280;27468;47.460;19.034;2024-02-26T00:37:50;99569.53;;;11.64;100.00
41800;BME280;27468;47.460;19.034;2024-02-26T00:40:15;99560.00;;;11.59;100.00
41800;BME280;27468;47.460;19.034;2024-02-26T00:42:40;99555.69;;;11.57;100.00
41800;BME280;27468;47.460;19.034;2024-02-26T00:45:14;99584.03;;;11.77;100.00
41800;BME280;27468;47.460;19.034;2024-02-26T00:47:39;99570.38;;;11.64;100.00
41800;BME280;27468;47.460;19.034;2024-02-26T00:50:07;99567.63;;;11.67;100.00
41800;BME280;27468;47.460;19.034;2024-02-26T00:52:33;99575.38;;;11.72;100.00
41800;BME280;27468;47.460;19.034;2024-02-26T00:54:59;99559.75;;;11.66;100.00
41800;BME280;27468;47.460;19.034;2024-02-26T00:57:24;99562.28;;;11.69;100.00
41800;BME280;27468;47.460;19.034;2024-02-26T00:59:49;99569.97;;;11.75;100.00
41800;BME280;27468;47.460;19.034;2024-02-26T01:02:15;99562.50;;;11.63;100.00
41800;BME280;27468;47.460;19.034;2024-02-26T01:04:41;99536.03;;;11.42;100.00
41800;BME280;27468;47.460;19.034;2024-02-26T01:07:06;99533.38;;;11.42;100.00
41800;BME280;27468;47.460;19.034;2024-02-26T01:09:31;99566.88;;;11.64;100.00
41800;BME280;27468;47.460;19.034;2024-02-26T01:11:57;99554.59;;;11.63;100.00
41800;BME280;27468;47.460;19.034;2024-02-26T01:14:22;99548.94;;;11.50;100.00
41800;BME280;27468;47.460;19.034;2024-02-26T01:16:48;99556.50;;;11.59;100.00
41800;BME280;27468;47.460;19.034;2024-02-26T01:19:13;99571.00;;;11.71;100.00
41800;BME280;27468;47.460;19.034;2024-02-26T01:21:38;99549.94;;;11.69;100.00
41800;BME280;27468;47.460;19.034;2024-02-26T01:24:04;99567.34;;;11.75;100.00
41800;BME280;27468;47.460;19.034;2024-02-26T01:26:29;99562.19;;;11.72;100.00
41800;BME280;27468;47.460;19.034;2024-02-26T01:28:54;99552.59;;;11.69;100.00
41800;BME280;27468;47.460;19.034;2024-02-26T01:31:20;99546.56;;;11.66;100.00
41800;BME280;27468;47.460;19.034;2024-02-26T01:33:46;99548.91;;;11.73;100.00
41800;BME280;27468;47.460;19.034;2024-02-26T01:36:11;99520.38;;;11.59;100.00
41800;BME280;27468;47.460;19.034;2024-02-26T01:38:37;99514.69;;;11.48;100.00
41800;BME280;27468;47.460;19.034;2024-02-26T01:41:02;99524.91;;;11.56;100.00
41800;BME280;27468;47.460;19.034;2024-02-26T01:43:27;99525.78;;;11.56;100.00
41800;BME280;27468;47.460;19.034;2024-02-26T01:45:53;99524.75;;;11.61;100.00
41800;BME280;27468;47.460;19.034;2024-02-26T01:48:19;99518.66;;;11.58;100.00
41800;BME280;27468;47.460;19.034;2024-02-26T01:50:44;99514.25;;;11.59;100.00
41800;BME280;27468;47.460;19.034;2024-02-26T01:53:10;99519.31;;;11.65;100.00
41800;BME280;27468;47.460;19.034;2024-02-26T01:55:36;99477.31;;;11.36;100.00
41800;BME280;27468;47.460;19.034;2024-02-26T01:58:02;99514.56;;;11.51;100.00
41800;BME280;27468;47.460;19.034;2024-02-26T02:00:27;99536.16;;;11.61;100.00
41800;BME280;27468;47.460;19.034;2024-02-26T02:02:53;99523.28;;;11.53;100.00
41800;BME280;27468;47.460;19.034;2024-02-26T02:05:20;99525.72;;;11.58;100.00
41800;BME280;27468;47.460;19.034;2024-02-26T02:07:46;99515.47;;;11.50;100.00
41800;BME280;27468;47.460;19.034;2024-02-26T02:10:13;99508.59;;;11.46;100.00
41800;BME280;27468;47.460;19.034;2024-02-26T02:12:40;99522.47;;;11.51;100.00
41800;BME280;27468;47.460;19.034;2024-02-26T02:15:06;99534.44;;;11.60;100.00
41800;BME280;27468;47.460;19.034;2024-02-26T02:17:31;99531.91;;;11.57;100.00
41800;BME280;27468;47.460;19.034;2024-02-26T02:19:57;99521.63;;;11.51;100.00
41800;BME280;27468;47.460;19.034;2024-02-26T02:22:22;99545.66;;;11.67;100.00
41800;BME280;27468;47.460;19.034;2024-02-26T02:24:49;99530.19;;;11.56;100.00
41800;BME280;27468;47.460;19.034;2024-02-26T02:27:14;99550.22;;;11.62;100.00
41800;BME280;27468;47.460;19.034;2024-02-26T02:29:40;99516.50;;;11.46;100.00
41800;BME280;27468;47.460;19.034;2024-02-26T02:32:06;99508.38;;;11.52;100.00
41800;BME280;27468;47.460;19.034;2024-02-26T02:34:32;99533.53;;;11.61;100.00
41800;BME280;27468;47.460;19.034;2024-02-26T02:36:57;99508.44;;;11.51;100.00
41800;BME280;27468;47.460;19.034;2024-02-26T02:39:23;99543.13;;;11.64;100.00
41800;BME280;27468;47.460;19.034;2024-02-26T02:41:48;99543.19;;;11.62;100.00
41800;BME280;27468;47.460;19.034;2024-02-26T02:44:13;99521.97;;;11.42;100.00
41800;BME280;27468;47.460;19.034;2024-02-26T02:46:39;99518.28;;;11.46;100.00
41800;BME280;27468;47.460;19.034;2024-02-26T02:49:08;99533.91;;;11.52;100.00
41800;BME280;27468;47.460;19.034;2024-02-26T02:51:33;99524.44;;;11.46;100.00
41800;BME280;27468;47.460;19.034;2024-02-26T02:53:58;99529.66;;;11.48;100.00
41800;BME280;27468;47.460;19.034;2024-02-26T02:56:24;99526.97;;;11.49;100.00
41800;BME280;27468;47.460;19.034;2024-02-26T02:58:49;99532.94;;;11.54;100.00
41800;BME280;27468;47.460;19.034;2024-02-26T03:01:14;99541.56;;;11.58;100.00
41800;BME280;27468;47.460;19.034;2024-02-26T03:03:40;99508.50;;;11.24;100.00
41800;BME280;27468;47.460;19.034;2024-02-26T03:06:05;99520.91;;;11.22;100.00
41800;BME280;27468;47.460;19.034;2024-02-26T03:08:30;99536.25;;;11.36;100.00
41800;BME280;27468;47.460;19.034;2024-02-26T03:10:58;99532.53;;;11.42;100.00
41800;BME280;27468;47.460;19.034;2024-02-26T03:13:23;99526.44;;;11.40;100.00
41800;BME280;27468;47.460;19.034;2024-02-26T03:15:49;99507.09;;;11.39;100.00
41800;BME280;27468;47.460;19.034;2024-02-26T03:18:14;99517.66;;;11.39;100.00
41800;BME280;27468;47.460;19.034;2024-02-26T03:20:39;99513.28;;;11.38;100.00
41800;BME280;27468;47.460;19.034;2024-02-26T03:23:05;99528.00;;;11.45;100.00
41800;BME280;27468;47.460;19.034;2024-02-26T03:25:30;99502.00;;;11.35;100.00
41800;BME280;27468;47.460;19.034;2024-02-26T03:27:55;99532.84;;;11.56;100.00
41800;BME280;27468;47.460;19.034;2024-02-26T03:30:21;99499.25;;;11.38;100.00
41800;BME280;27468;47.460;19.034;2024-02-26T03:32:46;99495.00;;;11.34;100.00
41800;BME280;27468;47.460;19.034;2024-02-26T03:35:12;99519.84;;;11.51;100.00
41800;BME280;27468;47.460;19.034;2024-02-26T03:37:38;99485.28;;;11.34;100.00
41800;BME280;27468;47.460;19.034;2024-02-26T03:40:04;99515.72;;;11.44;100.00
41800;BME280;27468;47.460;19.034;2024-02-26T03:42:29;99515.59;;;11.47;100.00
41800;BME280;27468;47.460;19.034;2024-02-26T03:44:55;99497.50;;;11.37;100.00
41800;BME280;27468;47.460;19.034;2024-02-26T03:47:20;99515.44;;;11.52;100.00
41800;BME280;27468;47.460;19.034;2024-02-26T03:49:45;99493.03;;;11.39;100.00
41800;BME280;27468;47.460;19.034;2024-02-26T03:52:11;99506.06;;;11.43;100.00
41800;BME280;27468;47.460;19.034;2024-02-26T03:54:36;99519.25;;;11.43;100.00
41800;BME280;27468;47.460;19.034;2024-02-26T03:57:01;99512.25;;;11.42;100.00
41800;BME280;27468;47.460;19.034;2024-02-26T03:59:27;99497.78;;;11.29;100.00
41800;BME280;27468;47.460;19.034;2024-02-26T04:01:52;99470.06;;;11.17;100.00
41800;BME280;27468;47.460;19.034;2024-02-26T04:04:17;99509.63;;;11.42;100.00
41800;BME280;27468;47.460;19.034;2024-02-26T04:06:46;99513.13;;;11.43;100.00
41800;BME280;27468;47.460;19.034;2024-02-26T04:09:14;99524.59;;;11.42;100.00
41800;BME280;27468;47.460;19.034;2024-02-26T04:11:39;99494.41;;;11.25;100.00
41800;BME280;27468;47.460;19.034;2024-02-26T04:14:05;99480.47;;;11.22;100.00
41800;BME280;27468;47.460;19.034;2024-02-26T04:16:33;99478.91;;;11.16;100.00
41800;BME280;27468;47.460;19.034;2024-02-26T04:18:59;99502.38;;;11.24;100.00
41800;BME280;27468;47.460;19.034;2024-02-26T04:21:24;99526.75;;;11.31;100.00
41800;BME280;27468;47.460;19.034;2024-02-26T04:23:50;99499.78;;;11.22;100.00
41800;BME280;27468;47.460;19.034;2024-02-26T04:26:15;99513.63;;;11.29;100.00
41800;BME280;27468;47.460;19.034;2024-02-26T04:28:41;99521.72;;;11.24;100.00
41800;BME280;27468;47.460;19.034;2024-02-26T04:31:06;99511.50;;;10.90;100.00
41800;BME280;27468;47.460;19.034;2024-02-26T04:33:34;99492.50;;;10.81;100.00
41800;BME280;27468;47.460;19.034;2024-02-26T04:35:59;99474.28;;;10.75;100.00
41800;BME280;27468;47.460;19.034;2024-02-26T04:38:24;99494.03;;;10.88;100.00
41800;BME280;27468;47.460;19.034;2024-02-26T04:40:49;99517.19;;;11.03;100.00
41800;BME280;27468;47.460;19.034;2024-02-26T04:43:15;99510.94;;;11.06;100.00
41800;BME280;27468;47.460;19.034;2024-02-26T04:45:42;99501.25;;;11.06;100.00
41800;BME280;27468;47.460;19.034;2024-02-26T04:48:08;99517.09;;;11.06;100.00
41800;BME280;27468;47.460;19.034;2024-02-26T04:50:33;99499.66;;;10.77;100.00
41800;BME280;27468;47.460;19.034;2024-02-26T04:52:59;99506.16;;;10.67;100.00
41800;BME280;27468;47.460;19.034;2024-02-26T04:55:24;99505.34;;;10.65;100.00
41800;BME280;27468;47.460;19.034;2024-02-26T04:57:50;99507.09;;;10.91;100.00
41800;BME280;27468;47.460;19.034;2024-02-26T05:00:15;99492.88;;;10.70;100.00
41800;BME280;27468;47.460;19.034;2024-02-26T05:02:41;99491.16;;;10.69;100.00
41800;BME280;27468;47.460;19.034;2024-02-26T05:05:06;99471.84;;;10.69;100.00
41800;BME280;27468;47.460;19.034;2024-02-26T05:07:33;99489.88;;;10.81;100.00
41800;BME280;27468;47.460;19.034;2024-02-26T05:09:59;99457.97;;;10.64;100.00
41800;BME280;27468;47.460;19.034;2024-02-26T05:12:24;99474.44;;;10.70;100.00
41800;BME280;27468;47.460;19.034;2024-02-26T05:14:49;99495.00;;;10.85;100.00
41800;BME280;27468;47.460;19.034;2024-02-26T05:17:15;99489.72;;;10.85;100.00
41800;BME280;27468;47.460;19.034;2024-02-26T05:19:40;99486.06;;;10.89;100.00
41800;BME280;27468;47.460;19.034;2024-02-26T05:22:05;99460.16;;;10.76;100.00
41800;BME280;27468;47.460;19.034;2024-02-26T05:24:31;99460.94;;;10.79;100.00
41800;BME280;27468;47.460;19.034;2024-02-26T05:26:56;99507.22;;;11.11;100.00
41800;BME280;27468;47.460;19.034;2024-02-26T05:29:21;99471.84;;;10.94;100.00
41800;BME280;27468;47.460;19.034;2024-02-26T05:31:47;99475.25;;;10.97;100.00
41800;BME280;27468;47.460;19.034;2024-02-26T05:34:12;99468.03;;;10.77;100.00
41800;BME280;27468;47.460;19.034;2024-02-26T05:36:37;99495.00;;;10.85;100.00
41800;BME280;27468;47.460;19.034;2024-02-26T05:39:03;99471.91;;;10.92;100.00
41800;BME280;27468;47.460;19.034;2024-02-26T05:41:29;99469.81;;;11.00;100.00
41800;BME280;27468;47.460;19.034;2024-02-26T05:43:55;99466.28;;;11.01;100.00
41800;BME280;27468;47.460;19.034;2024-02-26T05:46:21;99488.44;;;11.20;100.00
41800;BME280;27468;47.460;19.034;2024-02-26T05:48:51;99471.16;;;11.12;100.00
41800;BME280;27468;47.460;19.034;2024-02-26T05:51:16;99478.38;;;11.07;100.00
41800;BME280;27468;47.460;19.034;2024-02-26T05:53:42;99479.19;;;11.09;100.00
41800;BME280;27468;47.460;19.034;2024-02-26T05:56:08;99473.00;;;11.10;100.00
41800;BME280;27468;47.460;19.034;2024-02-26T05:58:33;99500.81;;;10.95;100.00
41800;BME280;27468;47.460;19.034;2024-02-26T06:00:58;99507.16;;;10.89;100.00
41800;BME280;27468;47.460;19.034;2024-02-26T06:03:25;99485.31;;;10.86;100.00
41800;BME280;27468;47.460;19.034;2024-02-26T06:05:50;99507.41;;;11.07;100.00
41800;BME280;27468;47.460;19.034;2024-02-26T06:08:15;99485.28;;;11.11;100.00
41800;BME280;27468;47.460;19.034;2024-02-26T06:10:41;99505.25;;;11.18;100.00
41800;BME280;27468;47.460;19.034;2024-02-26T06:13:06;99512.75;;;11.29;100.00
41800;BME280;27468;47.460;19.034;2024-02-26T06:15:31;99505.59;;;11.32;100.00
41800;BME280;27468;47.460;19.034;2024-02-26T06:17:57;99501.06;;;11.36;100.00
41800;BME280;27468;47.460;19.034;2024-02-26T06:20:22;99512.81;;;11.27;100.00
41800;BME280;27468;47.460;19.034;2024-02-26T06:22:47;99505.59;;;11.32;100.00
41800;BME280;27468;47.460;19.034;2024-02-26T06:25:13;99502.97;;;11.32;100.00
41800;BME280;27468;47.460;19.034;2024-02-26T06:27:38;99517.19;;;11.51;100.00
41800;BME280;27468;47.460;19.034;2024-02-26T06:30:04;99521.25;;;11.60;100.00
41800;BME280;27468;47.460;19.034;2024-02-26T06:32:29;99526.78;;;11.54;100.00
41800;BME280;27468;47.460;19.034;2024-02-26T06:34:55;99505.13;;;11.21;100.00
41800;BME280;27468;47.460;19.034;2024-02-26T06:37:20;99518.38;;;11.19;100.00
41800;BME280;27468;47.460;19.034;2024-02-26T06:39:46;99541.84;;;11.27;100.00
41800;BME280;27468;47.460;19.034;2024-02-26T06:42:11;99510.03;;;11.07;100.00
41800;BME280;27468;47.460;19.034;2024-02-26T06:44:37;99510.88;;;11.32;100.00
41800;BME280;27468;47.460;19.034;2024-02-26T06:47:02;99515.81;;;11.41;100.00
41800;BME280;27468;47.460;19.034;2024-02-26T06:49:28;99517.72;;;11.38;100.00
41800;BME280;27468;47.460;19.034;2024-02-26T06:51:54;99496.88;;;11.30;100.00
41800;BME280;27468;47.460;19.034;2024-02-26T06:54:20;99501.38;;;11.51;100.00
41800;BME280;27468;47.460;19.034;2024-02-26T06:56:45;99532.00;;;11.79;100.00
41800;BME280;27468;47.460;19.034;2024-02-26T06:59:11;99517.53;;;11.66;100.00
41800;BME280;27468;47.460;19.034;2024-02-26T07:01:36;99505.59;;;11.79;100.00
41800;BME280;27468;47.460;19.034;2024-02-26T07:04:01;99519.16;;;11.93;100.00
41800;BME280;27468;47.460;19.034;2024-02-26T07:06:27;99535.50;;;12.03;100.00
41800;BME280;27468;47.460;19.034;2024-02-26T07:08:53;99537.34;;;12.01;100.00
41800;BME280;27468;47.460;19.034;2024-02-26T07:11:19;99515.53;;;11.96;100.00
41800;BME280;27468;47.460;19.034;2024-02-26T07:13:45;99523.84;;;12.08;100.00
41800;BME280;27468;47.460;19.034;2024-02-26T07:16:10;99536.59;;;11.97;100.00
41800;BME280;27468;47.460;19.034;2024-02-26T07:18:36;99526.66;;;12.04;100.00
41800;BME280;27468;47.460;19.034;2024-02-26T07:22:58;99536.53;;;12.42;100.00
41800;BME280;27468;47.460;19.034;2024-02-26T07:25:23;99521.94;;;12.54;100.00
41800;BME280;27468;47.460;19.034;2024-02-26T07:27:50;99535.59;;;12.85;100.00
41800;BME280;27468;47.460;19.034;2024-02-26T07:30:15;99534.41;;;12.93;100.00
41800;BME280;27468;47.460;19.034;2024-02-26T07:32:42;99545.78;;;12.95;100.00
41800;BME280;27468;47.460;19.034;2024-02-26T07:35:07;99553.72;;;13.15;98.55
41800;BME280;27468;47.460;19.034;2024-02-26T07:37:33;99530.63;;;12.98;98.72
41800;BME280;27468;47.460;19.034;2024-02-26T07:39:58;99530.97;;;13.11;99.07
41800;BME280;27468;47.460;19.034;2024-02-26T07:42:23;99540.75;;;13.29;98.25
41800;BME280;27468;47.460;19.034;2024-02-26T07:44:50;99522.41;;;13.26;98.31
41800;BME280;27468;47.460;19.034;2024-02-26T07:47:16;99542.78;;;13.43;96.39
41800;BME280;27468;47.460;19.034;2024-02-26T07:49:41;99529.47;;;13.26;96.75
41800;BME280;27468;47.460;19.034;2024-02-26T07:52:06;99532.69;;;13.32;96.79
41800;BME280;27468;47.460;19.034;2024-02-26T07:54:32;99518.22;;;13.20;96.12
41800;BME280;27468;47.460;19.034;2024-02-26T07:56:57;99537.03;;;13.33;95.12
41800;BME280;27468;47.460;19.034;2024-02-26T07:59:23;99544.44;;;13.45;95.31
41800;BME280;27468;47.460;19.034;2024-02-26T08:01:50;99519.97;;;13.40;93.63
41800;BME280;27468;47.460;19.034;2024-02-26T08:04:16;99565.09;;;13.58;94.15
41800;BME280;27468;47.460;19.034;2024-02-26T08:06:41;99550.00;;;13.60;95.56
41800;BME280;27468;47.460;19.034;2024-02-26T08:09:08;99550.13;;;13.57;95.16
41800;BME280;27468;47.460;19.034;2024-02-26T08:11:33;99537.03;;;13.53;94.37
41800;BME280;27468;47.460;19.034;2024-02-26T08:13:58;99552.53;;;13.81;93.87
41800;BME280;27468;47.460;19.034;2024-02-26T08:16:24;99545.72;;;13.76;93.17
41800;BME280;27468;47.460;19.034;2024-02-26T08:18:49;99562.44;;;13.95;94.07
41800;BME280;27468;47.460;19.034;2024-02-26T08:21:15;99566.59;;;14.19;94.47
41800;BME280;27468;47.460;19.034;2024-02-26T08:23:40;99530.50;;;14.17;91.91
41800;BME280;27468;47.460;19.034;2024-02-26T08:26:05;99543.97;;;14.12;92.42
41800;BME280;27468;47.460;19.034;2024-02-26T08:28:32;99538.53;;;14.15;89.18
41800;BME280;27468;47.460;19.034;2024-02-26T08:30:57;99557.44;;;14.27;90.19
41800;BME280;27468;47.460;19.034;2024-02-26T08:33:23;99560.44;;;14.38;90.11
41800;BME280;27468;47.460;19.034;2024-02-26T08:35:48;99556.06;;;14.37;89.74
41800;BME280;27468;47.460;19.034;2024-02-26T08:38:14;99555.25;;;14.53;89.59
41800;BME280;27468;47.460;19.034;2024-02-26T08:40:39;99547.84;;;14.43;88.89
41800;BME280;27468;47.460;19.034;2024-02-26T08:43:04;99556.97;;;14.54;88.79
41800;BME280;27468;47.460;19.034;2024-02-26T08:45:30;99562.34;;;14.53;88.68
41800;BME280;27468;47.460;19.034;2024-02-26T08:47:55;99554.47;;;14.51;88.34
41800;BME280;27468;47.460;19.034;2024-02-26T08:50:21;99538.78;;;14.47;88.81
41800;BME280;27468;47.460;19.034;2024-02-26T08:52:46;99556.44;;;14.29;89.89
41800;BME280;27468;47.460;19.034;2024-02-26T08:55:15;99534.50;;;14.26;90.06
41800;BME280;27468;47.460;19.034;2024-02-26T08:57:40;99559.06;;;14.29;89.88
41800;BME280;27468;47.460;19.034;2024-02-26T09:00:06;99574.34;;;14.24;90.35
41800;BME280;27468;47.460;19.034;2024-02-26T09:02:32;99555.00;;;14.03;89.80
41800;BME280;27468;47.460;19.034;2024-02-26T09:04:57;99561.66;;;13.93;91.27
41800;BME280;27468;47.460;19.034;2024-02-26T09:07:23;99565.47;;;14.06;91.24
41800;BME280;27468;47.460;19.034;2024-02-26T09:09:48;99565.59;;;14.03;91.33
41800;BME280;27468;47.460;19.034;2024-02-26T09:12:13;99558.88;;;13.96;91.72
41800;BME280;27468;47.460;19.034;2024-02-26T09:14:39;99552.56;;;13.99;91.23
41800;BME280;27468;47.460;19.034;2024-02-26T09:17:04;99576.00;;;14.08;91.23
41800;BME280;27468;47.460;19.034;2024-02-26T09:19:31;99564.81;;;14.01;91.46
41800;BME280;27468;47.460;19.034;2024-02-26T09:21:56;99552.34;;;14.03;90.71
41800;BME280;27468;47.460;19.034;2024-02-26T09:24:23;99567.69;;;14.15;91.17
41800;BME280;27468;47.460;19.034;2024-02-26T09:26:49;99563.88;;;14.21;91.61
41800;BME280;27468;47.460;19.034;2024-02-26T09:29:15;99536.28;;;14.25;90.22
41800;BME280;27468;47.460;19.034;2024-02-26T09:31:40;99555.91;;;14.40;90.24
41800;BME280;27468;47.460;19.034;2024-02-26T09:34:06;99557.25;;;14.48;89.41
41800;BME280;27468;47.460;19.034;2024-02-26T09:36:32;99549.78;;;14.57;89.53
41800;BME280;27468;47.460;19.034;2024-02-26T09:38:57;99551.97;;;14.48;88.77
41800;BME280;27468;47.460;19.034;2024-02-26T09:41:23;99564.47;;;14.64;88.38
41800;BME280;27468;47.460;19.034;2024-02-26T09:43:48;99582.06;;;14.83;88.02
41800;BME280;27468;47.460;19.034;2024-02-26T09:46:17;99580.34;;;14.82;88.02
41800;BME280;27468;47.460;19.034;2024-02-26T09:48:46;99590.59;;;14.90;87.79
41800;BME280;27468;47.460;19.034;2024-02-26T09:51:12;99573.00;;;14.70;89.09
41800;BME280;27468;47.460;19.034;2024-02-26T09:53:39;99595.66;;;14.95;88.10
41800;BME280;27468;47.460;19.034;2024-02-26T09:56:08;99578.31;;;15.05;87.55
41800;BME280;27468;47.460;19.034;2024-02-26T09:58:34;99589.00;;;15.20;87.74
41800;BME280;27468;47.460;19.034;2024-02-26T10:01:02;99590.03;;;15.18;85.93
41800;BME280;27468;47.460;19.034;2024-02-26T10:03:31;99589.94;;;15.02;84.89
41800;BME280;27468;47.460;19.034;2024-02-26T10:05:59;99572.22;;;15.03;83.67
41800;BME280;27468;47.460;19.034;2024-02-26T10:08:25;99577.63;;;15.01;83.31
41800;BME280;27468;47.460;19.034;2024-02-26T10:10:52;99563.66;;;14.80;84.52
41800;BME280;27468;47.460;19.034;2024-02-26T10:13:19;99551.75;;;14.70;84.24
41800;BME280;27468;47.460;19.034;2024-02-26T10:15:45;99562.00;;;14.78;84.67
41800;BME280;27468;47.460;19.034;2024-02-26T10:18:11;99582.38;;;14.77;83.77
41800;BME280;27468;47.460;19.034;2024-02-26T10:20:36;99579.19;;;14.88;83.77
41800;BME280;27468;47.460;19.034;2024-02-26T10:23:03;99585.59;;;15.01;83.60
41800;BME280;27468;47.460;19.034;2024-02-26T10:25:28;99558.09;;;15.02;82.59
41800;BME280;27468;47.460;19.034;2024-02-26T10:27:59;99559.66;;;15.06;83.05
41800;BME280;27468;47.460;19.034;2024-02-26T10:30:25;99543.31;;;15.14;83.63
41800;BME280;27468;47.460;19.034;2024-02-26T10:32:51;99554.09;;;15.28;82.91
41800;BME280;27468;47.460;19.034;2024-02-26T10:35:17;99579.47;;;15.51;80.14
41800;BME280;27468;47.460;19.034;2024-02-26T10:37:43;99558.16;;;15.68;79.47
41800;BME280;27468;47.460;19.034;2024-02-26T10:40:18;99533.91;;;15.59;79.52
41800;BME280;27468;47.460;19.034;2024-02-26T10:42:43;99548.81;;;15.61;79.73
41800;BME280;27468;47.460;19.034;2024-02-26T10:45:10;99549.66;;;15.62;81.52
41800;BME280;27468;47.460;19.034;2024-02-26T10:47:36;99559.22;;;15.48;81.90
41800;BME280;27468;47.460;19.034;2024-02-26T10:50:03;99544.22;;;15.47;80.11
41800;BME280;27468;47.460;19.034;2024-02-26T10:52:32;99545.88;;;15.50;79.22
41800;BME280;27468;47.460;19.034;2024-02-26T10:55:00;99536.19;;;15.49;79.01
41800;BME280;27468;47.460;19.034;2024-02-26T10:57:31;99519.88;;;15.57;80.04
41800;BME280;27468;47.460;19.034;2024-02-26T10:59:57;99521.22;;;15.64;79.14
41800;BME280;27468;47.460;19.034;2024-02-26T11:02:24;99539.31;;;15.73;79.46
41800;BME280;27468;47.460;19.034;2024-02-26T11:04:50;99529.72;;;15.70;79.28
41800;BME280;27468;47.460;19.034;2024-02-26T11:07:16;99523.31;;;15.90;77.49
41800;BME280;27468;47.460;19.034;2024-02-26T11:09:41;99534.63;;;15.94;76.09
41800;BME280;27468;47.460;19.034;2024-02-26T11:12:10;99529.25;;;16.11;75.74
41800;BME280;27468;47.460;19.034;2024-02-26T11:14:39;99534.75;;;16.08;75.44
41800;BME280;27468;47.460;19.034;2024-02-26T11:17:07;99540.03;;;16.24;76.43
41800;BME280;27468;47.460;19.034;2024-02-26T11:19:35;99543.28;;;16.44;75.72
41800;BME280;27468;47.460;19.034;2024-02-26T11:22:01;99526.91;;;16.36;76.38
41800;BME280;27468;47.460;19.034;2024-02-26T11:24:27;99521.06;;;16.30;76.00
41800;BME280;27468;47.460;19.034;2024-02-26T11:26:55;99540.19;;;16.36;75.44
41800;BME280;27468;47.460;19.034;2024-02-26T11:29:25;99530.31;;;16.54;74.04
41800;BME280;27468;47.460;19.034;2024-02-26T11:31:52;99542.31;;;16.61;73.71
41800;BME280;27468;47.460;19.034;2024-02-26T11:34:18;99516.50;;;16.47;71.44
41800;BME280;27468;47.460;19.034;2024-02-26T11:36:44;99509.81;;;16.40;72.14
41800;BME280;27468;47.460;19.034;2024-02-26T11:39:11;99547.31;;;16.67;72.97
41800;BME280;27468;47.460;19.034;2024-02-26T11:41:38;99544.47;;;16.70;73.87
41800;BME280;27468;47.460;19.034;2024-02-26T11:44:04;99519.00;;;16.80;70.52
41800;BME280;27468;47.460;19.034;2024-02-26T11:46:42;99542.22;;;17.08;70.94
41800;BME280;27468;47.460;19.034;2024-02-26T11:49:31;99539.19;;;17.14;70.70
41800;BME280;27468;47.460;19.034;2024-02-26T11:51:57;99547.34;;;17.11;69.55
41800;BME280;27468;47.460;19.034;2024-02-26T11:54:53;99546.63;;;17.24;68.98
41800;BME280;27468;47.460;19.034;2024-02-26T11:57:51;99547.06;;;17.16;70.23
41800;BME280;27468;47.460;19.034;2024-02-26T12:00:17;99526.81;;;17.13;69.02
41800;BME280;27468;47.460;19.034;2024-02-26T12:02:50;99524.81;;;17.17;68.80
41800;BME280;27468;47.460;19.034;2024-02-26T12:05:23;99533.97;;;17.27;67.41
41800;BME280;27468;47.460;19.034;2024-02-26T12:07:55;99542.22;;;17.37;68.18
41800;BME280;27468;47.460;19.034;2024-02-26T12:12:53;99514.63;;;17.38;67.46
41800;BME280;27468;47.460;19.034;2024-02-26T12:15:18;99540.72;;;17.47;68.60
41800;BME280;27468;47.460;19.034;2024-02-26T12:17:48;99515.03;;;17.46;68.04
41800;BME280;27468;47.460;19.034;2024-02-26T12:20:14;99507.69;;;17.35;67.65
41800;BME280;27468;47.460;19.034;2024-02-26T12:22:39;99538.34;;;17.57;67.78
41800;BME280;27468;47.460;19.034;2024-02-26T12:25:06;99525.50;;;17.49;66.87
41800;BME280;27468;47.460;19.034;2024-02-26T12:27:34;99532.25;;;17.55;67.05
41800;BME280;27468;47.460;19.034;2024-02-26T12:30:00;99519.03;;;17.53;66.85
41800;BME280;27468;47.460;19.034;2024-02-26T12:32:25;99515.69;;;17.35;67.46
41800;BME280;27468;47.460;19.034;2024-02-26T12:34:51;99516.00;;;17.31;66.37
41800;BME280;27468;47.460;19.034;2024-02-26T12:37:16;99519.59;;;17.44;67.25
41800;BME280;27468;47.460;19.034;2024-02-26T12:39:42;99520.84;;;17.53;66.34
41800;BME280;27468;47.460;19.034;2024-02-26T12:42:08;99488.66;;;17.41;65.87